Thunder radar more information blitzortung!


Radar de pluja more information rain snow radar


Visita la nostra xarxa de llocs de meteo:

Template documentation
and downloads

And another site



No particular awareness of the weather is required.    There are no Weather-warnings

Pagina Historial Weather Underground text

Diari Resum Juliol 21, 2017 Unitats:  Mètric    Imperial   Tant
« Previous Dia
SegĂźent Dia »
Diari Setmana Mensual Anual Personalitzada
  Maxima: Minima: Media:
Temperatura: -17.8 °C -6.8 °C -4.4 °C
Punt de rosada: -17.8 °C -9.3 °C -8.3 °C
Humitat: Humidity % 51 % 65 %
Wind Speed: 0 km/h 0 km/h 6.3 km/h
RĂ fegues de vent: 0 km/h - -
Vent:- - SSE
Pression baro: 0 hPa 34097 hPa -
Precipitacions: 25.4 mm    
Historical Graphs
 
 
Dades de taula per Juliol 21, 2017
Temps Temperatura Punt de rosada Pression baro Vent Wind Speed RĂ fegues de vent Humitat Rainfall Rate (Hourly)
-17.8 °C -17.8 °C 0 hPa Calm     Humidity % 0 mm
00:00 -4.9 °C -8.9 °C 34222.3 hPa ENE 3.7 km/h 3.7 km/h 64 % 0 mm
00:05 -6.2 °C -9.3 °C 34198.6 hPa WNW 2.6 km/h 5.1 km/h 71 % 0 mm
00:15 -6.2 °C -9.1 °C 34198.6 hPa Calm     72 % 0 mm
00:25 -6.3 °C -9.2 °C 34198.6 hPa WSW 2.6 km/h 5.1 km/h 72 % 0 mm
00:35 -6.3 °C -9.2 °C 34198.6 hPa West 2.6 km/h 5.1 km/h 72 % 0 mm
00:45 -6.4 °C -9.3 °C 34198.6 hPa West 2.6 km/h 2.6 km/h 72 % 0 mm
00:55 -6.4 °C -9.2 °C 34198.6 hPa Calm   5.1 km/h 73 % 0 mm
01:05 -6.4 °C -9.2 °C 34198.6 hPa Calm     73 % 0 mm
01:15 -6.3 °C -9.1 °C 34198.6 hPa WSW 2.6 km/h 2.6 km/h 73 % 0 mm
01:25 -6.3 °C -9.1 °C 34198.6 hPa West 2.6 km/h 5.1 km/h 73 % 0 mm
01:35 -6.3 °C -9.1 °C 34198.6 hPa Calm   5.1 km/h 73 % 0 mm
01:45 -6.4 °C -9.2 °C 34198.6 hPa Calm     73 % 0 mm
01:55 -6.4 °C -9.2 °C 34198.6 hPa Calm   2.6 km/h 73 % 0 mm
02:05 -6.4 °C -9.2 °C 34198.6 hPa NE 2.6 km/h 5.1 km/h 73 % 0 mm
02:15 -6.4 °C -9.2 °C 34198.6 hPa Calm   7.7 km/h 73 % 0 mm
02:25 -6.4 °C -9.3 °C 34198.6 hPa NE 5.1 km/h 5.1 km/h 72 % 0 mm
02:35 -6.4 °C -9.2 °C 34198.6 hPa West 2.6 km/h 2.6 km/h 73 % 0 mm
02:45 -6.3 °C -9.1 °C 34198.6 hPa Calm   5.1 km/h 73 % 0 mm
02:55 -6 °C -8.8 °C 34198.6 hPa Calm   5.1 km/h 73 % 0 mm
03:05 -5.9 °C -8.8 °C 34198.6 hPa SW 2.6 km/h 5.1 km/h 72 % 0 mm
03:15 -5.7 °C -8.8 °C 34198.6 hPa SW 2.6 km/h 5.1 km/h 71 % 0 mm
03:25 -5.3 °C -8.6 °C 34198.6 hPa SW 2.6 km/h 5.1 km/h 69 % 0 mm
03:35 -5.1 °C -8.4 °C 34198.6 hPa Calm   5.1 km/h 69 % 0 mm
03:45 -5 °C -8.6 °C 34198.6 hPa SSW 2.6 km/h 5.1 km/h 67 % 0 mm
03:55 -4.9 °C -8.5 °C 34198.6 hPa SSW 2.6 km/h 7.7 km/h 67 % 0 mm
04:05 -4.7 °C -8.4 °C 34198.6 hPa Calm   2.6 km/h 66 % 0 mm
04:15 -4.4 °C -8.4 °C 34164.7 hPa SW 5.1 km/h 5.1 km/h 64 % 0 mm
04:25 -4.5 °C -8.4 °C 34222.3 hPa SSW 2.6 km/h 7.7 km/h 65 % 0 mm
04:35 -4.2 °C -8.4 °C 34222.3 hPa SSE 7.7 km/h 7.7 km/h 63 % 0 mm
04:45 -4.1 °C -8.2 °C 34164.7 hPa Calm   7.7 km/h 63 % 0 mm
04:55 -4.3 °C -8.4 °C 34198.6 hPa SW 2.6 km/h 10.3 km/h 63 % 0 mm
05:05 -4.2 °C -8.5 °C 34198.6 hPa SW 2.6 km/h 7.7 km/h 62 % 0 mm
05:15 -4.1 °C -8.4 °C 34198.6 hPa SW 2.6 km/h 5.1 km/h 62 % 0 mm
05:25 -3.9 °C -8.5 °C 34222.3 hPa SW 2.6 km/h 10.3 km/h 60 % 0 mm
05:35 -3.3 °C -8.1 °C 34222.3 hPa WSW 5.1 km/h 7.7 km/h 59 % 0 mm
10:35 -3.3 °C -8.1 °C 34198.6 hPa NNE 16.1 km/h 16.1 km/h 59 % 0 mm
10:40 -3.2 °C -8.1 °C 34198.6 hPa North 6 km/h 6 km/h 58 % 0 mm
10:45 -3.2 °C -8.2 °C 34198.6 hPa NNW 9 km/h 9 km/h 58 % 0 mm
10:51 -3.4 °C -8.3 °C 34198.6 hPa NE 9.3 km/h 9.3 km/h 58 % 0 mm
10:56 -3.4 °C -8.6 °C 34198.6 hPa NNE 15 km/h 15 km/h 57 % 0 mm
11:01 -3.6 °C -8.8 °C 34198.6 hPa ENE 15 km/h 15 km/h 56 % 0 mm
11:04 -3.5 °C -8.6 °C 34198.6 hPa ENE 11.9 km/h 11.9 km/h 57 % 0 mm
11:09 -3.5 °C -8.7 °C 34198.6 hPa NNE 15 km/h 15 km/h 56 % 0 mm
11:14 -3.6 °C -8.8 °C 34198.6 hPa NE 14 km/h 14 km/h 56 % 0 mm
11:19 -3.4 °C -8.6 °C 34198.6 hPa NE 11.9 km/h 11.9 km/h 57 % 0 mm
11:24 -3.4 °C -8.7 °C 34164.7 hPa NNE 17.9 km/h 17.9 km/h 56 % 0 mm
11:29 -3.3 °C -8.7 °C 34164.7 hPa NNE 23.8 km/h 23.8 km/h 55 % 0 mm
11:34 -3.2 °C -8.6 °C 34164.7 hPa NNE 14.5 km/h 14.5 km/h 55 % 0 mm
11:39 -3.3 °C -8.8 °C 34164.7 hPa NNW 23.8 km/h 23.8 km/h 54 % 0 mm
11:49 -3.1 °C -8.7 °C 34164.7 hPa ESE 11.1 km/h 11.1 km/h 54 % 0 mm
11:54 -3.1 °C -8.7 °C 34164.7 hPa NNE 11.9 km/h 11.9 km/h 54 % 0 mm
11:59 -3.2 °C -8.9 °C 34164.7 hPa NNE 19.6 km/h 19.6 km/h 53 % 0 mm
12:04 -3.5 °C -9.1 °C 34164.7 hPa ENE 20.9 km/h 20.9 km/h 54 % 0 mm
12:09 -3.6 °C -9.1 °C 34198.6 hPa East 17.9 km/h 17.9 km/h 54 % 0 mm
12:14 -3.6 °C -9.2 °C 34198.6 hPa ENE 6.8 km/h 6.8 km/h 54 % 0 mm
12:19 -3.7 °C -9.1 °C 34198.6 hPa NNE 12.7 km/h 12.7 km/h 55 % 0 mm
12:25 -4.1 °C -8.8 °C 34164.7 hPa North 5.1 km/h 18.2 km/h 59 % 0 mm
12:30 -4.4 °C -8.8 °C 34164.7 hPa NNW 5.1 km/h 18.2 km/h 61 % 0 mm
12:35 -4.8 °C -8.8 °C 34164.7 hPa NE 11.9 km/h 11.9 km/h 64 % 0 mm
12:40 -5.2 °C -9 °C 34222.3 hPa NNE 12.9 km/h 18.2 km/h 65 % 0 mm
12:45 -5.2 °C -8.9 °C 34222.3 hPa NNW 5.6 km/h 5.6 km/h 66 % 0 mm
12:50 -5.3 °C -8.8 °C 34222.3 hPa East 6 km/h 6 km/h 68 % 0 mm
12:55 -5.5 °C -8.9 °C 34198.6 hPa NNE 2.6 km/h 10.3 km/h 68 % 0 mm
13:00 -5.6 °C -8.8 °C 34198.6 hPa NNE 7.7 km/h 12.9 km/h 69 % 0 mm
13:05 -5.7 °C -8.8 °C 34198.6 hPa NNE 2.6 km/h 10.3 km/h 71 % 0 mm
13:10 -5.7 °C -8.5 °C 34198.6 hPa NNE 5.1 km/h 7.7 km/h 73 % 0 mm
13:15 -5.7 °C -8.5 °C 34198.6 hPa ENE 6 km/h 6 km/h 73 % 0 mm
13:20 -5.8 °C -8.4 °C 34198.6 hPa WNW 6 km/h 6 km/h 74 % 0 mm
13:25 -5.7 °C -8.3 °C 34198.6 hPa West 6 km/h 6 km/h 75 % 0 mm
13:26 -5.7 °C -8.3 °C 34198.6 hPa SW 6 km/h 6 km/h 75 % 0 mm
13:31 -5.7 °C -8 °C 34198.6 hPa SSW 6 km/h 6 km/h 77 % 0 mm
13:36 -5.8 °C -8.2 °C 34222.3 hPa SE 3.1 km/h 3.1 km/h 77 % 0 mm
13:41 -5.7 °C -8.1 °C 34222.3 hPa East 6 km/h 6 km/h 77 % 0 mm
13:46 -5.7 °C -8.2 °C 34222.3 hPa WSW 6.3 km/h 6.3 km/h 76 % 25.4 mm
13:51 -5.7 °C -7.8 °C 34198.6 hPa SSE 3.1 km/h   79 % 25.4 mm
13:56 -5.7 °C -7.9 °C 34198.6 hPa NNE 4.2 km/h   78 % 25.4 mm
14:01 -5.7 °C -8.1 °C 34198.6 hPa NNE 3.1 km/h   77 % 25.4 mm
14:06 -5.7 °C -8.1 °C 34198.6 hPa NW 6.3 km/h 6.3 km/h 76 % 25.4 mm
14:11 -5.5 °C -7.8 °C 34198.6 hPa East 9 km/h 9 km/h 77 % 25.4 mm
14:16 -5.6 °C -7.9 °C 34198.6 hPa NNE 3.1 km/h   77 % 25.4 mm
14:21 -5.5 °C -7.9 °C 34198.6 hPa NNE 9 km/h 9 km/h 76 % 25.4 mm
14:26 -5.4 °C -7.8 °C 34198.6 hPa NW 8.5 km/h 8.5 km/h 76 % 25.4 mm
14:31 -5.4 °C -7.9 °C 34198.6 hPa South 9 km/h 9 km/h 75 % 25.4 mm
14:36 -5.3 °C -7.7 °C 34198.6 hPa NE 6 km/h 6 km/h 76 % 25.4 mm
14:41 -5.3 °C -7.9 °C 34198.6 hPa NNE 9 km/h 9 km/h 75 % 25.4 mm
14:46 -5.3 °C -7.9 °C 34198.6 hPa ENE 9 km/h 9 km/h 75 % 0 mm
14:51 -5.2 °C -7.8 °C 34164.7 hPa ENE 9 km/h 9 km/h 75 % 0 mm
14:56 -5.2 °C -7.8 °C 34164.7 hPa NNE 9.3 km/h 9.3 km/h 75 % 0 mm
15:02 -5.1 °C -7.7 °C 34164.7 hPa ENE 6 km/h 6 km/h 75 % 0 mm
15:07 -4.9 °C -7.6 °C 34198.6 hPa NNE 6.3 km/h 6.3 km/h 74 % 0 mm
15:12 -4.9 °C -7.7 °C 34198.6 hPa ENE 11.9 km/h 11.9 km/h 73 % 0 mm
15:17 -4.7 °C -7.6 °C 34198.6 hPa ENE 11.9 km/h 11.9 km/h 72 % 0 mm
15:22 -4.4 °C -7.5 °C 34198.6 hPa ESE 6 km/h 6 km/h 71 % 0 mm
15:27 -4.2 °C -7.6 °C 34198.6 hPa NNE 9 km/h 9 km/h 69 % 0 mm
15:32 -4.3 °C -7.8 °C 34198.6 hPa ENE 11.9 km/h 11.9 km/h 68 % 0 mm
15:38 -4.3 °C -7.9 °C 34164.7 hPa NNE 9 km/h 9 km/h 67 % 0 mm
15:43 -4.2 °C -7.8 °C 34164.7 hPa NNE 9 km/h 9 km/h 67 % 0 mm
15:48 -4.1 °C -7.7 °C 34164.7 hPa NE 9 km/h 9 km/h 67 % 0 mm
15:53 -3.9 °C -7.8 °C 34198.6 hPa ENE 9 km/h 9 km/h 65 % 0 mm
15:58 -3.7 °C -7.6 °C 34198.6 hPa NNE 11.9 km/h 11.9 km/h 65 % 0 mm
16:03 -3.6 °C -7.7 °C 34198.6 hPa ENE 9 km/h 9 km/h 63 % 0 mm
16:08 -3.6 °C -7.7 °C 34198.6 hPa ENE 9 km/h 9 km/h 63 % 0 mm
16:13 -3.3 °C -7.7 °C 34222.3 hPa North 6 km/h 6 km/h 62 % 0 mm
16:19 -3.3 °C -7.8 °C 34222.3 hPa NE 6 km/h 6 km/h 61 % 0 mm
16:24 -3.2 °C -8 °C 34198.6 hPa NE 9 km/h 9 km/h 59 % 0 mm
16:29 -2.9 °C -8.1 °C 34198.6 hPa ESE 12.7 km/h   57 % 0 mm
16:34 -2.8 °C -7.8 °C 34198.6 hPa SW 11.9 km/h 11.9 km/h 58 % 0 mm
16:39 -2.8 °C -8.2 °C 34198.6 hPa NNW 6.8 km/h 6.8 km/h 55 % 0 mm
16:45 -2.9 °C -8.2 °C 34198.6 hPa NE 6 km/h 6 km/h 56 % 0 mm
16:50 -2.9 °C -8.2 °C 34198.6 hPa NW 6 km/h   56 % 0 mm
16:55 -2.8 °C -8.2 °C 34198.6 hPa NE 2.6 km/h 5.1 km/h 55 % 0 mm
17:00 -2.7 °C -8.2 °C 34198.6 hPa West 5.1 km/h 7.7 km/h 55 % 0 mm
17:05 -2.7 °C -8.1 °C 34198.6 hPa WSW 5.1 km/h 10.3 km/h 55 % 0 mm
17:10 -2.6 °C -8.1 °C 34164.7 hPa SW 5.1 km/h 7.7 km/h 55 % 0 mm
17:15 -2.6 °C -8.2 °C 34164.7 hPa Calm   7.7 km/h 54 % 0 mm
17:20 -2.8 °C -8.4 °C 34164.7 hPa ESE 11.9 km/h 11.9 km/h 54 % 0 mm
17:25 -2.8 °C -8.3 °C 34164.7 hPa NNE 5.1 km/h 7.7 km/h 55 % 0 mm
17:30 -2.9 °C -8.6 °C 34164.7 hPa ENE 5.1 km/h 12.9 km/h 54 % 0 mm
17:35 -2.9 °C -8.6 °C 34164.7 hPa NE 5.1 km/h 10.3 km/h 54 % 0 mm
17:40 -3 °C -8.6 °C 34164.7 hPa NNE 2.6 km/h 10.3 km/h 54 % 0 mm
17:45 -2.9 °C -8.6 °C 34164.7 hPa NNE 5.1 km/h 12.9 km/h 54 % 0 mm
17:50 -2.9 °C -8.5 °C 34164.7 hPa NE 2.6 km/h 12.9 km/h 54 % 0 mm
17:55 -2.9 °C -8.5 °C 34130.9 hPa NNE 2.6 km/h 10.3 km/h 54 % 0 mm
18:00 -2.9 °C -8.3 °C 34130.9 hPa North 5.1 km/h 12.9 km/h 55 % 0 mm
18:05 -2.8 °C -8.4 °C 34130.9 hPa NE 2.6 km/h 7.7 km/h 54 % 0 mm
18:10 -2.8 °C -8.2 °C 34164.7 hPa NNW 5.1 km/h 10.3 km/h 55 % 0 mm
18:15 -2.7 °C -8.5 °C 34164.7 hPa North 2.6 km/h 10.3 km/h 53 % 0 mm
18:20 -2.2 °C -8.1 °C 34164.7 hPa WNW 6 km/h 6 km/h 53 % 0 mm
18:26 -2.1 °C -7.9 °C 34164.7 hPa South 11.9 km/h 11.9 km/h 53 % 0 mm
18:31 -2.3 °C -8.3 °C 34164.7 hPa South 6.3 km/h 6.3 km/h 52 % 0 mm
18:36 -2.4 °C -8.2 °C 34130.9 hPa West 6 km/h 6 km/h 53 % 0 mm
18:41 -2.3 °C -8.1 °C 34130.9 hPa South 5.6 km/h 5.6 km/h 53 % 0 mm
18:42 -2.2 °C -8.1 °C 34130.9 hPa West 6 km/h 6 km/h 53 % 0 mm
18:47 -2.1 °C -8.1 °C 34130.9 hPa WSW 6.3 km/h 6.3 km/h 52 % 0 mm
18:53 -2.1 °C -8.1 °C 34130.9 hPa SE 9 km/h 9 km/h 52 % 0 mm
18:58 -2.1 °C -8.3 °C 34130.9 hPa ENE 6 km/h 6 km/h 51 % 0 mm
19:03 -2 °C -8 °C 34130.9 hPa NNW 6 km/h 6 km/h 52 % 0 mm
19:08 -2.2 °C -8.2 °C 34130.9 hPa NW 6 km/h 6 km/h 52 % 0 mm
19:10 -5.3 °C -8 °C 34198.6 hPa WSW 2.6 km/h 5.1 km/h 74 % 0 mm
19:13 -2.2 °C -8.2 °C 34130.9 hPa SW 4.2 km/h 4.2 km/h 52 % 0 mm
19:18 -2.1 °C -8.1 °C 34130.9 hPa WSW 6 km/h   52 % 0 mm
19:20 -5.4 °C -8.1 °C 34198.6 hPa West 2.6 km/h 5.1 km/h 74 % 0 mm
19:23 -2.2 °C -8.2 °C 34097 hPa SW 11.9 km/h 11.9 km/h 52 % 0 mm
19:29 -2.2 °C -8.2 °C 34097 hPa South 9 km/h 9 km/h 52 % 0 mm
19:30 -5.4 °C -7.9 °C 34198.6 hPa Calm   7.7 km/h 75 % 0 mm
19:34 -2.3 °C -8.3 °C 34097 hPa WSW 6 km/h 6 km/h 52 % 0 mm
19:39 -2.4 °C -8.4 °C 34130.9 hPa NNE 3.1 km/h   52 % 0 mm
19:40 -5.4 °C -8 °C 34198.6 hPa West 2.6 km/h 5.1 km/h 75 % 0 mm
19:44 -2.4 °C -8.4 °C 34130.9 hPa WSW 9 km/h 9 km/h 52 % 0 mm
19:50 -2.4 °C -8.2 °C 34130.9 hPa SW 9 km/h 9 km/h 53 % 0 mm
19:55 -2.4 °C -8.4 °C 34130.9 hPa SW 7.7 km/h 12.9 km/h 52 % 0 mm
20:00 -2.6 °C -8.3 °C 34130.9 hPa SW 2.6 km/h 12.9 km/h 53 % 0 mm
20:05 -2.5 °C -8.3 °C 34130.9 hPa SW 5.1 km/h 10.3 km/h 53 % 0 mm
20:10 -2.6 °C -8.3 °C 34130.9 hPa SW 7.7 km/h 10.3 km/h 53 % 0 mm
20:15 -2.7 °C -8.3 °C 34130.9 hPa SW 5.1 km/h 7.7 km/h 54 % 0 mm
20:20 -2.7 °C -8.3 °C 34130.9 hPa SW 9 km/h 9 km/h 54 % 0 mm
20:25 -2.8 °C -8.4 °C 34130.9 hPa WSW 9 km/h 9 km/h 54 % 0 mm
20:30 -2.8 °C -8.1 °C 34130.9 hPa WSW 6 km/h 6.3 km/h 56 % 0 mm
20:35 -2.9 °C -8.2 °C 34130.9 hPa WSW 9 km/h 9 km/h 56 % 0 mm
20:40 -3.1 °C -8.2 °C 34130.9 hPa SW 11.9 km/h 11.9 km/h 57 % 0 mm
20:45 -3.2 °C -8.3 °C 34130.9 hPa SSW 9 km/h 9 km/h 57 % 0 mm
20:50 -5.8 °C -8 °C 34222.3 hPa West 2.6 km/h 2.6 km/h 78 % 0 mm
20:52 -3.3 °C -8.2 °C 34164.7 hPa SW 6 km/h 6 km/h 58 % 0 mm
20:57 -3.3 °C -8.3 °C 34164.7 hPa West 9 km/h 9 km/h 58 % 0 mm
21:00 -5.8 °C -7.9 °C 34222.3 hPa Calm     79 % 0 mm
21:02 -3.4 °C -8.2 °C 34164.7 hPa SW 6 km/h 6 km/h 59 % 0 mm
21:07 -3.4 °C -8.2 °C 34164.7 hPa SW 6 km/h 6.3 km/h 59 % 0 mm
21:10 -5.9 °C -7.9 °C 34222.3 hPa Calm     80 % 0 mm
21:12 -3.6 °C -8.2 °C 34164.7 hPa SW 9 km/h 9 km/h 60 % 0 mm
21:17 -3.7 °C -8.3 °C 34164.7 hPa SW 6.3 km/h 6.3 km/h 60 % 0 mm
21:20 -5.9 °C -7.9 °C 34222.3 hPa WNW 2.6 km/h   80 % 0 mm
21:22 -3.7 °C -8.3 °C 34164.7 hPa SW 9 km/h 9 km/h 60 % 0 mm
21:27 -3.8 °C -8.2 °C 34164.7 hPa SW 6 km/h 6 km/h 61 % 0 mm
21:30 -6 °C -8 °C 34222.3 hPa NW 2.6 km/h 2.6 km/h 80 % 0 mm
21:32 -3.8 °C -8.3 °C 34164.7 hPa SW 9 km/h 9 km/h 61 % 0 mm
21:37 -3.9 °C -8.1 °C 34164.7 hPa SW 6.8 km/h 6.8 km/h 63 % 0 mm
21:40 -6.1 °C -8.1 °C 34256.2 hPa NW 2.6 km/h 2.6 km/h 80 % 0 mm
21:42 -4 °C -8.2 °C 34164.7 hPa SW 9 km/h 9 km/h 63 % 0 mm
21:47 -4.1 °C -8.1 °C 34164.7 hPa SSW 11.9 km/h 11.9 km/h 64 % 0 mm
21:50 -6.1 °C -8.1 °C 34256.2 hPa Calm   5.1 km/h 80 % 0 mm
21:52 -4.1 °C -8.2 °C 34198.6 hPa SW 11.9 km/h 11.9 km/h 64 % 0 mm
21:57 -4.2 °C -8.1 °C 34198.6 hPa SW 9 km/h 9 km/h 65 % 0 mm
22:00 -6.2 °C -8.1 °C 34256.2 hPa Calm   2.6 km/h 81 % 0 mm
22:02 -4.2 °C -8.1 °C 34198.6 hPa SSW 15 km/h 15 km/h 65 % 0 mm
22:07 -4.3 °C -8.1 °C 34198.6 hPa SSW 14.5 km/h 14.5 km/h 66 % 0 mm
22:10 -6.3 °C -8.2 °C 34222.3 hPa West 2.6 km/h 2.6 km/h 81 % 0 mm
22:12 -4.4 °C -8.2 °C 34198.6 hPa WSW 11.9 km/h 11.9 km/h 66 % 0 mm
22:17 -4.5 °C -8 °C 34198.6 hPa SSW 9.3 km/h 9.3 km/h 68 % 0 mm
22:20 -6.3 °C -8.1 °C 34222.3 hPa Calm   5.1 km/h 82 % 0 mm
22:22 -4.6 °C -8 °C 34198.6 hPa South 11.9 km/h 11.9 km/h 68 % 0 mm
22:27 -4.6 °C -8.1 °C 34198.6 hPa West 9 km/h 9 km/h 68 % 0 mm
22:30 -6.3 °C -8 °C 34256.2 hPa Calm     83 % 0 mm
22:32 -4.7 °C -8 °C 34198.6 hPa SW 6.3 km/h 6.3 km/h 69 % 0 mm
22:37 -4.7 °C -8.1 °C 34164.7 hPa WSW 6 km/h 6 km/h 69 % 0 mm
22:40 -6.3 °C -8 °C 34222.3 hPa West 2.6 km/h 2.6 km/h 83 % 0 mm
22:42 -4.7 °C -8.1 °C 34164.7 hPa WNW 6.8 km/h 6.8 km/h 69 % 0 mm
22:47 -4.8 °C -8 °C 34164.7 hPa WSW 6 km/h 6 km/h 70 % 0 mm
22:50 -6.5 °C -8.2 °C 34222.3 hPa Calm   5.1 km/h 83 % 0 mm
22:53 -4.8 °C -8.1 °C 34198.6 hPa WSW 6.3 km/h 6.3 km/h 70 % 0 mm
22:58 -4.9 °C -8.1 °C 34198.6 hPa WSW 6 km/h 6 km/h 70 % 0 mm
23:00 -6.6 °C -8.2 °C 34222.3 hPa Calm   2.6 km/h 83 % 0 mm
23:03 -4.9 °C -8.2 °C 34198.6 hPa WSW 6.3 km/h 6.3 km/h 70 % 0 mm
23:08 -5 °C -8.2 °C 34198.6 hPa SW 9 km/h 9 km/h 70 % 0 mm
23:10 -6.6 °C -8.2 °C 34222.3 hPa Calm     84 % 0 mm
23:13 -5 °C -8.1 °C 34198.6 hPa SW 6.3 km/h 7.6 km/h 71 % 0 mm
23:18 -5.1 °C -8.1 °C 34198.6 hPa SW 6 km/h   72 % 0 mm
23:20 -6.7 °C -8.2 °C 34222.3 hPa WNW 2.6 km/h 2.6 km/h 84 % 0 mm
23:23 -5.1 °C -8.2 °C 34164.7 hPa SW 6 km/h 6 km/h 71 % 0 mm
23:28 -5.2 °C -8.1 °C 34164.7 hPa WSW 6.8 km/h 6.8 km/h 72 % 0 mm
23:30 -6.8 °C -8.2 °C 34222.3 hPa West 2.6 km/h 5.1 km/h 85 % 0 mm
23:33 -5.2 °C -8.1 °C 34164.7 hPa Calm     72 % 0 mm
23:38 -5.2 °C -8.1 °C 34198.6 hPa WSW 3.1 km/h   73 % 0 mm
23:40 -6.8 °C -8.2 °C 34222.3 hPa Calm     86 % 0 mm
23:43 -5.3 °C -8.1 °C 34198.6 hPa NW 5.6 km/h 5.6 km/h 73 % 0 mm
23:48 -5.3 °C -8.1 °C 34198.6 hPa WNW 3.1 km/h 3.1 km/h 73 % 0 mm
23:50 -6.8 °C -8.2 °C 34222.3 hPa Calm     86 % 0 mm
23:53 -5.3 °C -8.1 °C 34198.6 hPa WSW 6 km/h 6 km/h 73 % 0 mm
23:58 -5.3 °C -8 °C 34198.6 hPa SW 6 km/h 6 km/h 74 % 0 mm
Meteo Sesrovires
Elogis d' Weather Underground - 1.5 mb

Guio original per  Jim McMurry - jmcmurry@mwt.net Adaptat per a la plantilla per  Wim van der Kuil - Leuven-Template.eu

Trobareu la nostra informacio del temps tambe a:

Weather Underground

AWEKAS